sensor_id;sensor_type;location;lat;lon;timestamp;pressure;altitude;pressure_sealevel;temperature;humidity
58785;BME280;44557;51.862;19.378;2023-05-25T00:00:09;99646.20;;;13.87;89.82
58785;BME280;44557;51.862;19.378;2023-05-25T00:02:31;99643.63;;;13.85;90.06
58785;BME280;44557;51.862;19.378;2023-05-25T00:04:34;99643.19;;;13.79;90.40
58785;BME280;44557;51.862;19.378;2023-05-25T00:06:37;99641.80;;;13.91;89.86
58785;BME280;44557;51.862;19.378;2023-05-25T00:08:41;99639.98;;;13.84;89.96
58785;BME280;44557;51.862;19.378;2023-05-25T00:10:43;99635.59;;;13.72;90.68
58785;BME280;44557;51.862;19.378;2023-05-25T00:12:45;99634.52;;;13.74;90.89
58785;BME280;44557;51.862;19.378;2023-05-25T00:14:47;99629.75;;;13.77;90.46
58785;BME280;44557;51.862;19.378;2023-05-25T00:16:49;99630.32;;;13.81;90.30
58785;BME280;44557;51.862;19.378;2023-05-25T00:18:51;99634.84;;;13.85;90.28
58785;BME280;44557;51.862;19.378;2023-05-25T00:20:58;99633.16;;;13.84;90.17
58785;BME280;44557;51.862;19.378;2023-05-25T00:23:06;99639.53;;;13.79;90.33
58785;BME280;44557;51.862;19.378;2023-05-25T00:25:07;99644.79;;;13.76;90.57
58785;BME280;44557;51.862;19.378;2023-05-25T00:27:10;99644.83;;;13.72;90.99
58785;BME280;44557;51.862;19.378;2023-05-25T00:29:11;99647.35;;;13.71;90.92
58785;BME280;44557;51.862;19.378;2023-05-25T00:31:15;99647.92;;;13.65;91.17
58785;BME280;44557;51.862;19.378;2023-05-25T00:33:17;99650.08;;;13.66;91.17
58785;BME280;44557;51.862;19.378;2023-05-25T00:35:18;99651.36;;;13.66;91.34
58785;BME280;44557;51.862;19.378;2023-05-25T00:37:20;99650.30;;;13.72;91.25
58785;BME280;44557;51.862;19.378;2023-05-25T00:39:22;99651.16;;;13.69;90.93
58785;BME280;44557;51.862;19.378;2023-05-25T00:41:25;99657.09;;;13.65;91.45
58785;BME280;44557;51.862;19.378;2023-05-25T00:43:28;99659.28;;;13.67;91.80
58785;BME280;44557;51.862;19.378;2023-05-25T00:45:29;99663.55;;;13.64;91.99
58785;BME280;44557;51.862;19.378;2023-05-25T00:47:32;99660.00;;;13.64;91.68
58785;BME280;44557;51.862;19.378;2023-05-25T00:49:34;99666.77;;;13.63;91.62
58785;BME280;44557;51.862;19.378;2023-05-25T00:51:36;99665.14;;;13.70;91.29
58785;BME280;44557;51.862;19.378;2023-05-25T00:53:38;99662.70;;;13.65;91.57
58785;BME280;44557;51.862;19.378;2023-05-25T00:55:44;99661.36;;;13.58;91.88
58785;BME280;44557;51.862;19.378;2023-05-25T00:57:50;99657.88;;;13.64;91.48
58785;BME280;44557;51.862;19.378;2023-05-25T00:59:54;99656.51;;;13.70;91.27
58785;BME280;44557;51.862;19.378;2023-05-25T01:02:05;99657.69;;;13.64;91.79
58785;BME280;44557;51.862;19.378;2023-05-25T01:04:10;99657.96;;;13.48;92.61
58785;BME280;44557;51.862;19.378;2023-05-25T01:06:15;99661.30;;;13.62;92.02
58785;BME280;44557;51.862;19.378;2023-05-25T01:08:19;99662.48;;;13.59;92.06
58785;BME280;44557;51.862;19.378;2023-05-25T01:10:23;99659.94;;;13.58;92.51
58785;BME280;44557;51.862;19.378;2023-05-25T01:12:28;99654.05;;;13.67;91.99
58785;BME280;44557;51.862;19.378;2023-05-25T01:14:30;99649.11;;;13.59;92.48
58785;BME280;44557;51.862;19.378;2023-05-25T01:16:34;99650.23;;;13.62;91.99
58785;BME280;44557;51.862;19.378;2023-05-25T01:18:36;99650.64;;;13.63;91.84
58785;BME280;44557;51.862;19.378;2023-05-25T01:20:37;99653.01;;;13.56;92.31
58785;BME280;44557;51.862;19.378;2023-05-25T01:22:44;99652.99;;;13.53;92.61
58785;BME280;44557;51.862;19.378;2023-05-25T01:24:52;99654.79;;;13.48;92.96
58785;BME280;44557;51.862;19.378;2023-05-25T01:27:05;99653.91;;;13.54;92.75
58785;BME280;44557;51.862;19.378;2023-05-25T01:29:10;99647.78;;;13.53;92.56
58785;BME280;44557;51.862;19.378;2023-05-25T01:31:13;99648.09;;;13.46;93.01
58785;BME280;44557;51.862;19.378;2023-05-25T01:33:17;99646.11;;;13.53;92.82
58785;BME280;44557;51.862;19.378;2023-05-25T01:35:19;99644.54;;;13.53;92.63
58785;BME280;44557;51.862;19.378;2023-05-25T01:37:22;99644.84;;;13.46;93.20
58785;BME280;44557;51.862;19.378;2023-05-25T01:39:26;99646.58;;;13.48;92.93
58785;BME280;44557;51.862;19.378;2023-05-25T01:41:28;99643.72;;;13.45;93.72
58785;BME280;44557;51.862;19.378;2023-05-25T01:43:30;99644.28;;;13.42;93.63
58785;BME280;44557;51.862;19.378;2023-05-25T01:45:31;99644.36;;;13.46;93.70
58785;BME280;44557;51.862;19.378;2023-05-25T01:47:45;99644.52;;;13.49;93.31
58785;BME280;44557;51.862;19.378;2023-05-25T01:49:58;99644.58;;;13.47;93.70
58785;BME280;44557;51.862;19.378;2023-05-25T01:52:21;99647.42;;;13.54;93.38
58785;BME280;44557;51.862;19.378;2023-05-25T01:54:31;99646.77;;;13.50;93.33
58785;BME280;44557;51.862;19.378;2023-05-25T01:56:35;99647.48;;;13.50;93.42
58785;BME280;44557;51.862;19.378;2023-05-25T01:58:41;99651.45;;;13.61;93.09
58785;BME280;44557;51.862;19.378;2023-05-25T02:00:45;99651.59;;;13.54;93.41
58785;BME280;44557;51.862;19.378;2023-05-25T02:02:49;99652.61;;;13.42;94.20
58785;BME280;44557;51.862;19.378;2023-05-25T02:04:52;99651.83;;;13.47;94.20
58785;BME280;44557;51.862;19.378;2023-05-25T02:06:55;99651.71;;;13.52;93.99
58785;BME280;44557;51.862;19.378;2023-05-25T02:08:57;99646.93;;;13.54;93.46
58785;BME280;44557;51.862;19.378;2023-05-25T02:11:00;99645.61;;;13.48;94.03
58785;BME280;44557;51.862;19.378;2023-05-25T02:13:02;99649.34;;;13.38;94.63
58785;BME280;44557;51.862;19.378;2023-05-25T02:15:04;99653.09;;;13.44;94.66
58785;BME280;44557;51.862;19.378;2023-05-25T02:17:06;99650.98;;;13.41;94.78
58785;BME280;44557;51.862;19.378;2023-05-25T02:19:07;99647.46;;;13.36;95.12
58785;BME280;44557;51.862;19.378;2023-05-25T02:21:09;99650.42;;;13.38;95.54
58785;BME280;44557;51.862;19.378;2023-05-25T02:23:11;99652.55;;;13.41;95.31
58785;BME280;44557;51.862;19.378;2023-05-25T02:25:13;99657.31;;;13.38;95.52
58785;BME280;44557;51.862;19.378;2023-05-25T02:27:14;99660.76;;;13.37;95.70
58785;BME280;44557;51.862;19.378;2023-05-25T02:29:16;99655.92;;;13.43;95.36
58785;BME280;44557;51.862;19.378;2023-05-25T02:31:18;99664.01;;;13.31;96.11
58785;BME280;44557;51.862;19.378;2023-05-25T02:33:19;99664.56;;;13.31;96.27
58785;BME280;44557;51.862;19.378;2023-05-25T02:35:21;99661.80;;;13.35;96.29
58785;BME280;44557;51.862;19.378;2023-05-25T02:37:23;99663.23;;;13.38;96.17
58785;BME280;44557;51.862;19.378;2023-05-25T02:39:25;99663.86;;;13.41;96.08
58785;BME280;44557;51.862;19.378;2023-05-25T02:41:28;99666.20;;;13.37;96.57
58785;BME280;44557;51.862;19.378;2023-05-25T02:43:29;99666.09;;;13.42;96.15
58785;BME280;44557;51.862;19.378;2023-05-25T02:45:32;99673.19;;;13.25;97.40
58785;BME280;44557;51.862;19.378;2023-05-25T02:47:33;99671.89;;;13.27;97.52
58785;BME280;44557;51.862;19.378;2023-05-25T02:49:35;99679.07;;;13.30;97.26
58785;BME280;44557;51.862;19.378;2023-05-25T02:51:36;99677.95;;;13.29;97.42
58785;BME280;44557;51.862;19.378;2023-05-25T02:53:38;99676.48;;;13.31;97.48
58785;BME280;44557;51.862;19.378;2023-05-25T02:55:40;99675.30;;;13.34;97.61
58785;BME280;44557;51.862;19.378;2023-05-25T02:57:43;99672.43;;;13.42;97.95
58785;BME280;44557;51.862;19.378;2023-05-25T02:59:45;99672.53;;;13.34;97.72
58785;BME280;44557;51.862;19.378;2023-05-25T03:01:47;99676.23;;;13.27;98.60
58785;BME280;44557;51.862;19.378;2023-05-25T03:03:48;99675.66;;;13.26;98.63
58785;BME280;44557;51.862;19.378;2023-05-25T03:05:53;99672.34;;;13.36;98.67
58785;BME280;44557;51.862;19.378;2023-05-25T03:07:54;99676.70;;;13.33;98.50
58785;BME280;44557;51.862;19.378;2023-05-25T03:09:56;99677.00;;;13.38;98.51
58785;BME280;44557;51.862;19.378;2023-05-25T03:11:58;99679.11;;;13.28;98.55
58785;BME280;44557;51.862;19.378;2023-05-25T03:14:00;99679.95;;;13.30;99.15
58785;BME280;44557;51.862;19.378;2023-05-25T03:16:01;99681.17;;;13.35;98.48
58785;BME280;44557;51.862;19.378;2023-05-25T03:18:03;99680.75;;;13.30;98.57
58785;BME280;44557;51.862;19.378;2023-05-25T03:20:05;99683.21;;;13.31;99.13
58785;BME280;44557;51.862;19.378;2023-05-25T03:22:07;99684.64;;;13.37;99.14
58785;BME280;44557;51.862;19.378;2023-05-25T03:24:09;99687.07;;;13.33;98.60
58785;BME280;44557;51.862;19.378;2023-05-25T03:26:10;99686.80;;;13.32;98.70
58785;BME280;44557;51.862;19.378;2023-05-25T03:28:12;99689.04;;;13.33;98.79
58785;BME280;44557;51.862;19.378;2023-05-25T03:30:14;99689.11;;;13.32;99.02
58785;BME280;44557;51.862;19.378;2023-05-25T03:32:16;99687.71;;;13.34;98.51
58785;BME280;44557;51.862;19.378;2023-05-25T03:34:17;99696.72;;;13.39;98.14
58785;BME280;44557;51.862;19.378;2023-05-25T03:36:19;99697.48;;;13.27;99.01
58785;BME280;44557;51.862;19.378;2023-05-25T03:38:22;99696.45;;;13.27;98.77
58785;BME280;44557;51.862;19.378;2023-05-25T03:40:23;99697.33;;;13.33;98.74
58785;BME280;44557;51.862;19.378;2023-05-25T03:42:25;99689.44;;;13.37;98.61
58785;BME280;44557;51.862;19.378;2023-05-25T03:44:27;99695.59;;;13.39;97.95
58785;BME280;44557;51.862;19.378;2023-05-25T03:46:28;99698.67;;;13.29;98.71
58785;BME280;44557;51.862;19.378;2023-05-25T03:48:30;99696.87;;;13.27;99.44
58785;BME280;44557;51.862;19.378;2023-05-25T03:50:31;99702.40;;;13.30;98.99
58785;BME280;44557;51.862;19.378;2023-05-25T03:52:34;99697.04;;;13.33;98.59
58785;BME280;44557;51.862;19.378;2023-05-25T03:54:36;99701.39;;;13.34;98.51
58785;BME280;44557;51.862;19.378;2023-05-25T03:56:38;99696.69;;;13.36;98.99
58785;BME280;44557;51.862;19.378;2023-05-25T03:58:39;99697.48;;;13.35;98.63
58785;BME280;44557;51.862;19.378;2023-05-25T04:00:41;99699.84;;;13.38;98.07
58785;BME280;44557;51.862;19.378;2023-05-25T04:02:43;99696.45;;;13.32;98.55
58785;BME280;44557;51.862;19.378;2023-05-25T04:04:44;99698.65;;;13.26;99.11
58785;BME280;44557;51.862;19.378;2023-05-25T04:06:46;99702.45;;;13.24;99.04
58785;BME280;44557;51.862;19.378;2023-05-25T04:08:52;99702.69;;;13.41;98.16
58785;BME280;44557;51.862;19.378;2023-05-25T04:10:54;99704.17;;;13.37;97.96
58785;BME280;44557;51.862;19.378;2023-05-25T04:12:56;99703.75;;;13.34;98.30
58785;BME280;44557;51.862;19.378;2023-05-25T04:14:58;99708.15;;;13.26;98.70
58785;BME280;44557;51.862;19.378;2023-05-25T04:16:59;99711.34;;;13.39;98.48
58785;BME280;44557;51.862;19.378;2023-05-25T04:19:01;99710.33;;;13.40;97.78
58785;BME280;44557;51.862;19.378;2023-05-25T04:21:03;99710.41;;;13.43;97.93
58785;BME280;44557;51.862;19.378;2023-05-25T04:23:04;99711.59;;;13.50;97.35
58785;BME280;44557;51.862;19.378;2023-05-25T04:25:06;99713.11;;;13.53;97.26
58785;BME280;44557;51.862;19.378;2023-05-25T04:27:08;99714.43;;;13.62;96.59
58785;BME280;44557;51.862;19.378;2023-05-25T04:29:10;99712.70;;;13.52;96.82
58785;BME280;44557;51.862;19.378;2023-05-25T04:31:14;99712.66;;;13.51;97.01
58785;BME280;44557;51.862;19.378;2023-05-25T04:33:16;99711.66;;;13.55;96.73
58785;BME280;44557;51.862;19.378;2023-05-25T04:35:18;99707.56;;;13.53;96.64
58785;BME280;44557;51.862;19.378;2023-05-25T04:37:22;99707.95;;;13.62;96.86
58785;BME280;44557;51.862;19.378;2023-05-25T04:39:23;99708.11;;;13.56;96.61
58785;BME280;44557;51.862;19.378;2023-05-25T04:41:25;99707.23;;;13.56;96.54
58785;BME280;44557;51.862;19.378;2023-05-25T04:43:30;99706.67;;;13.55;96.33
58785;BME280;44557;51.862;19.378;2023-05-25T04:45:31;99708.89;;;13.49;96.75
58785;BME280;44557;51.862;19.378;2023-05-25T04:47:33;99707.51;;;13.54;96.49
58785;BME280;44557;51.862;19.378;2023-05-25T04:49:35;99710.32;;;13.46;96.36
58785;BME280;44557;51.862;19.378;2023-05-25T04:51:36;99715.79;;;13.59;96.11
58785;BME280;44557;51.862;19.378;2023-05-25T04:53:38;99715.84;;;13.58;96.23
58785;BME280;44557;51.862;19.378;2023-05-25T04:55:40;99717.29;;;13.55;95.96
58785;BME280;44557;51.862;19.378;2023-05-25T04:57:41;99720.50;;;13.58;96.38
58785;BME280;44557;51.862;19.378;2023-05-25T04:59:43;99720.17;;;13.60;95.87
58785;BME280;44557;51.862;19.378;2023-05-25T05:01:44;99721.31;;;13.65;95.68
58785;BME280;44557;51.862;19.378;2023-05-25T05:03:46;99717.58;;;13.64;95.67
58785;BME280;44557;51.862;19.378;2023-05-25T05:05:47;99716.85;;;13.66;95.37
58785;BME280;44557;51.862;19.378;2023-05-25T05:07:49;99715.18;;;13.66;94.61
58785;BME280;44557;51.862;19.378;2023-05-25T05:09:52;99713.09;;;13.68;94.84
58785;BME280;44557;51.862;19.378;2023-05-25T05:11:53;99710.91;;;13.63;94.73
58785;BME280;44557;51.862;19.378;2023-05-25T05:13:55;99715.42;;;13.60;94.84
58785;BME280;44557;51.862;19.378;2023-05-25T05:15:56;99716.39;;;13.64;94.26
58785;BME280;44557;51.862;19.378;2023-05-25T05:17:58;99718.17;;;13.62;94.38
58785;BME280;44557;51.862;19.378;2023-05-25T05:20:00;99718.80;;;13.69;94.15
58785;BME280;44557;51.862;19.378;2023-05-25T05:22:01;99714.30;;;13.76;93.62
58785;BME280;44557;51.862;19.378;2023-05-25T05:24:03;99714.64;;;13.84;93.89
58785;BME280;44557;51.862;19.378;2023-05-25T05:26:04;99722.23;;;13.70;94.12
58785;BME280;44557;51.862;19.378;2023-05-25T05:28:09;99718.67;;;13.63;94.42
58785;BME280;44557;51.862;19.378;2023-05-25T05:30:11;99720.08;;;13.63;94.35
58785;BME280;44557;51.862;19.378;2023-05-25T05:32:13;99719.64;;;13.70;94.53
58785;BME280;44557;51.862;19.378;2023-05-25T05:34:14;99722.58;;;13.80;93.74
58785;BME280;44557;51.862;19.378;2023-05-25T05:36:17;99720.36;;;13.68;93.85
58785;BME280;44557;51.862;19.378;2023-05-25T05:38:19;99725.18;;;13.77;93.81
58785;BME280;44557;51.862;19.378;2023-05-25T05:40:21;99725.98;;;13.84;93.58
58785;BME280;44557;51.862;19.378;2023-05-25T05:42:23;99729.74;;;13.83;93.48
58785;BME280;44557;51.862;19.378;2023-05-25T05:44:24;99728.81;;;13.70;93.25
58785;BME280;44557;51.862;19.378;2023-05-25T05:46:26;99733.66;;;13.68;93.53
58785;BME280;44557;51.862;19.378;2023-05-25T05:48:27;99735.25;;;13.78;93.27
58785;BME280;44557;51.862;19.378;2023-05-25T05:50:29;99741.60;;;13.79;93.06
58785;BME280;44557;51.862;19.378;2023-05-25T05:52:31;99739.84;;;13.81;92.92
58785;BME280;44557;51.862;19.378;2023-05-25T05:54:33;99740.55;;;13.85;92.49
58785;BME280;44557;51.862;19.378;2023-05-25T05:56:34;99739.61;;;13.88;92.53
58785;BME280;44557;51.862;19.378;2023-05-25T05:58:36;99739.63;;;13.80;93.04
58785;BME280;44557;51.862;19.378;2023-05-25T06:00:37;99741.40;;;13.78;92.99
58785;BME280;44557;51.862;19.378;2023-05-25T06:02:39;99742.67;;;13.85;92.37
58785;BME280;44557;51.862;19.378;2023-05-25T06:04:41;99749.77;;;13.93;92.25
58785;BME280;44557;51.862;19.378;2023-05-25T06:06:42;99747.46;;;13.96;92.13
58785;BME280;44557;51.862;19.378;2023-05-25T06:08:45;99750.92;;;13.88;92.26
58785;BME280;44557;51.862;19.378;2023-05-25T06:10:47;99747.11;;;13.94;91.95
58785;BME280;44557;51.862;19.378;2023-05-25T06:12:48;99748.65;;;13.96;91.48
58785;BME280;44557;51.862;19.378;2023-05-25T06:14:50;99749.86;;;14.09;90.57
58785;BME280;44557;51.862;19.378;2023-05-25T06:16:52;99748.86;;;14.21;89.87
58785;BME280;44557;51.862;19.378;2023-05-25T06:18:54;99745.92;;;14.40;88.99
58785;BME280;44557;51.862;19.378;2023-05-25T06:20:56;99742.95;;;14.57;88.54
58785;BME280;44557;51.862;19.378;2023-05-25T06:22:57;99749.00;;;14.54;88.35
58785;BME280;44557;51.862;19.378;2023-05-25T06:24:59;99750.95;;;14.35;89.39
58785;BME280;44557;51.862;19.378;2023-05-25T06:27:01;99744.20;;;14.55;89.27
58785;BME280;44557;51.862;19.378;2023-05-25T06:29:06;99744.50;;;14.70;87.77
58785;BME280;44557;51.862;19.378;2023-05-25T06:31:07;99746.55;;;14.89;86.30
58785;BME280;44557;51.862;19.378;2023-05-25T06:33:09;99749.05;;;15.07;85.68
58785;BME280;44557;51.862;19.378;2023-05-25T06:35:10;99756.36;;;15.31;85.57
58785;BME280;44557;51.862;19.378;2023-05-25T06:37:19;99753.41;;;15.38;84.35
58785;BME280;44557;51.862;19.378;2023-05-25T06:39:22;99759.05;;;15.22;84.95
58785;BME280;44557;51.862;19.378;2023-05-25T06:41:24;99758.82;;;15.03;85.31
58785;BME280;44557;51.862;19.378;2023-05-25T06:43:26;99759.19;;;15.06;85.69
58785;BME280;44557;51.862;19.378;2023-05-25T06:45:28;99763.14;;;15.09;85.16
58785;BME280;44557;51.862;19.378;2023-05-25T06:47:29;99765.48;;;15.11;85.80
58785;BME280;44557;51.862;19.378;2023-05-25T06:49:31;99769.08;;;15.21;85.55
58785;BME280;44557;51.862;19.378;2023-05-25T06:51:32;99766.41;;;15.18;84.85
58785;BME280;44557;51.862;19.378;2023-05-25T06:53:34;99763.41;;;15.43;84.73
58785;BME280;44557;51.862;19.378;2023-05-25T06:55:36;99758.77;;;15.53;85.21
58785;BME280;44557;51.862;19.378;2023-05-25T06:57:37;99757.36;;;15.73;84.01
58785;BME280;44557;51.862;19.378;2023-05-25T06:59:39;99760.51;;;15.84;82.66
58785;BME280;44557;51.862;19.378;2023-05-25T07:01:41;99753.92;;;15.89;81.68
58785;BME280;44557;51.862;19.378;2023-05-25T07:03:42;99753.38;;;16.05;82.06
58785;BME280;44557;51.862;19.378;2023-05-25T07:05:44;99752.73;;;16.14;81.32
58785;BME280;44557;51.862;19.378;2023-05-25T07:07:45;99748.89;;;16.60;80.37
58785;BME280;44557;51.862;19.378;2023-05-25T07:09:47;99749.27;;;16.49;78.40
58785;BME280;44557;51.862;19.378;2023-05-25T07:11:48;99748.12;;;16.93;77.00
58785;BME280;44557;51.862;19.378;2023-05-25T07:13:50;99751.25;;;17.59;75.15
58785;BME280;44557;51.862;19.378;2023-05-25T07:15:52;99751.02;;;18.15;72.47
58785;BME280;44557;51.862;19.378;2023-05-25T07:17:54;99748.10;;;18.07;72.12
58785;BME280;44557;51.862;19.378;2023-05-25T07:19:57;99752.61;;;17.83;72.49
58785;BME280;44557;51.862;19.378;2023-05-25T07:21:59;99752.63;;;17.32;74.25
58785;BME280;44557;51.862;19.378;2023-05-25T07:24:00;99750.92;;;17.01;75.41
58785;BME280;44557;51.862;19.378;2023-05-25T07:26:02;99749.33;;;17.75;73.52
58785;BME280;44557;51.862;19.378;2023-05-25T07:28:04;99745.69;;;17.85;73.12
58785;BME280;44557;51.862;19.378;2023-05-25T07:30:06;99743.23;;;17.77;73.83
58785;BME280;44557;51.862;19.378;2023-05-25T07:32:08;99744.83;;;17.88;73.39
58785;BME280;44557;51.862;19.378;2023-05-25T07:34:09;99746.69;;;17.42;73.95
58785;BME280;44557;51.862;19.378;2023-05-25T07:36:11;99748.55;;;17.44;74.25
58785;BME280;44557;51.862;19.378;2023-05-25T07:38:13;99747.07;;;18.31;72.55
58785;BME280;44557;51.862;19.378;2023-05-25T07:40:14;99745.55;;;18.83;70.17
58785;BME280;44557;51.862;19.378;2023-05-25T07:42:16;99741.73;;;19.07;69.66
58785;BME280;44557;51.862;19.378;2023-05-25T07:44:21;99743.08;;;19.54;68.86
58785;BME280;44557;51.862;19.378;2023-05-25T07:46:22;99746.30;;;19.34;67.68
58785;BME280;44557;51.862;19.378;2023-05-25T07:48:26;99741.29;;;19.15;68.61
58785;BME280;44557;51.862;19.378;2023-05-25T07:50:27;99743.69;;;19.39;67.18
58785;BME280;44557;51.862;19.378;2023-05-25T07:52:29;99737.66;;;19.64;66.29
58785;BME280;44557;51.862;19.378;2023-05-25T07:54:31;99735.77;;;20.17;66.21
58785;BME280;44557;51.862;19.378;2023-05-25T07:56:32;99733.36;;;20.01;65.94
58785;BME280;44557;51.862;19.378;2023-05-25T07:58:34;99734.80;;;19.93;65.72
58785;BME280;44557;51.862;19.378;2023-05-25T08:00:36;99738.79;;;19.99;65.62
58785;BME280;44557;51.862;19.378;2023-05-25T08:02:37;99740.23;;;20.21;65.43
58785;BME280;44557;51.862;19.378;2023-05-25T08:04:39;99742.62;;;20.27;65.33
58785;BME280;44557;51.862;19.378;2023-05-25T08:06:42;99746.55;;;20.28;65.27
58785;BME280;44557;51.862;19.378;2023-05-25T08:08:44;99747.69;;;20.59;64.39
58785;BME280;44557;51.862;19.378;2023-05-25T08:10:46;99745.02;;;20.40;64.43
58785;BME280;44557;51.862;19.378;2023-05-25T08:12:48;99745.47;;;20.79;62.99
58785;BME280;44557;51.862;19.378;2023-05-25T08:14:49;99750.04;;;20.74;63.18
58785;BME280;44557;51.862;19.378;2023-05-25T08:16:51;99747.65;;;20.43;63.95
58785;BME280;44557;51.862;19.378;2023-05-25T08:18:53;99745.09;;;21.14;63.00
58785;BME280;44557;51.862;19.378;2023-05-25T08:20:54;99744.69;;;21.27;62.25
58785;BME280;44557;51.862;19.378;2023-05-25T08:22:56;99743.59;;;21.11;62.44
58785;BME280;44557;51.862;19.378;2023-05-25T08:24:59;99743.24;;;21.19;61.71
58785;BME280;44557;51.862;19.378;2023-05-25T08:27:01;99748.11;;;21.28;61.96
58785;BME280;44557;51.862;19.378;2023-05-25T08:29:03;99747.75;;;20.90;63.70
58785;BME280;44557;51.862;19.378;2023-05-25T08:31:05;99750.17;;;20.85;62.25
58785;BME280;44557;51.862;19.378;2023-05-25T08:33:06;99743.03;;;21.26;62.14
58785;BME280;44557;51.862;19.378;2023-05-25T08:35:08;99747.79;;;21.30;61.82
58785;BME280;44557;51.862;19.378;2023-05-25T08:37:10;99747.15;;;20.78;63.81
58785;BME280;44557;51.862;19.378;2023-05-25T08:39:12;99747.80;;;21.19;62.36
58785;BME280;44557;51.862;19.378;2023-05-25T08:41:14;99751.61;;;21.53;61.23
58785;BME280;44557;51.862;19.378;2023-05-25T08:43:15;99751.96;;;21.35;61.50
58785;BME280;44557;51.862;19.378;2023-05-25T08:45:17;99752.05;;;21.85;60.49
58785;BME280;44557;51.862;19.378;2023-05-25T08:47:21;99753.30;;;21.64;61.53
58785;BME280;44557;51.862;19.378;2023-05-25T08:49:23;99747.42;;;22.02;61.42
58785;BME280;44557;51.862;19.378;2023-05-25T08:51:28;99749.23;;;22.06;61.07
58785;BME280;44557;51.862;19.378;2023-05-25T08:53:34;99750.48;;;21.91;61.16
58785;BME280;44557;51.862;19.378;2023-05-25T08:55:38;99756.52;;;21.85;60.13
58785;BME280;44557;51.862;19.378;2023-05-25T09:00:04;99757.59;;;22.03;59.17
58785;BME280;44557;51.862;19.378;2023-05-25T09:04:17;99756.58;;;22.76;56.88
58785;BME280;44557;51.862;19.378;2023-05-25T09:06:19;99757.89;;;22.41;57.45
58785;BME280;44557;51.862;19.378;2023-05-25T09:08:23;99756.59;;;22.09;59.38
58785;BME280;44557;51.862;19.378;2023-05-25T09:10:26;99756.42;;;22.37;59.68
58785;BME280;44557;51.862;19.378;2023-05-25T09:12:30;99757.19;;;22.63;59.19
58785;BME280;44557;51.862;19.378;2023-05-25T09:14:33;99763.08;;;22.35;59.11
58785;BME280;44557;51.862;19.378;2023-05-25T09:16:39;99768.23;;;22.25;58.72
58785;BME280;44557;51.862;19.378;2023-05-25T09:18:40;99765.48;;;22.35;58.28
58785;BME280;44557;51.862;19.378;2023-05-25T09:20:42;99767.29;;;22.65;57.15
58785;BME280;44557;51.862;19.378;2023-05-25T09:22:45;99762.88;;;23.13;56.55
58785;BME280;44557;51.862;19.378;2023-05-25T09:24:47;99770.49;;;22.88;57.95
58785;BME280;44557;51.862;19.378;2023-05-25T09:26:49;99766.23;;;22.88;57.44
58785;BME280;44557;51.862;19.378;2023-05-25T09:28:51;99770.59;;;23.12;57.37
58785;BME280;44557;51.862;19.378;2023-05-25T09:30:52;99767.29;;;22.81;56.93
58785;BME280;44557;51.862;19.378;2023-05-25T09:32:54;99767.19;;;23.15;56.43
58785;BME280;44557;51.862;19.378;2023-05-25T09:35:09;99766.96;;;23.39;56.87
58785;BME280;44557;51.862;19.378;2023-05-25T09:37:15;99769.48;;;23.19;55.81
58785;BME280;44557;51.862;19.378;2023-05-25T09:39:17;99770.27;;;23.31;56.14
58785;BME280;44557;51.862;19.378;2023-05-25T09:41:19;99772.86;;;23.37;55.29
58785;BME280;44557;51.862;19.378;2023-05-25T09:43:21;99771.62;;;23.40;56.53
58785;BME280;44557;51.862;19.378;2023-05-25T09:45:23;99767.68;;;23.33;56.35
58785;BME280;44557;51.862;19.378;2023-05-25T09:47:27;99772.35;;;22.73;56.88
58785;BME280;44557;51.862;19.378;2023-05-25T09:49:29;99770.46;;;22.59;56.98
58785;BME280;44557;51.862;19.378;2023-05-25T09:51:32;99766.28;;;22.70;56.62
58785;BME280;44557;51.862;19.378;2023-05-25T09:53:34;99762.96;;;22.39;57.64
58785;BME280;44557;51.862;19.378;2023-05-25T09:55:36;99772.87;;;22.60;57.17
58785;BME280;44557;51.862;19.378;2023-05-25T09:57:38;99767.80;;;22.62;57.14
58785;BME280;44557;51.862;19.378;2023-05-25T09:59:40;99766.41;;;22.40;57.27
58785;BME280;44557;51.862;19.378;2023-05-25T10:01:42;99764.90;;;22.54;57.85
58785;BME280;44557;51.862;19.378;2023-05-25T10:03:47;99766.81;;;22.80;56.33
58785;BME280;44557;51.862;19.378;2023-05-25T10:05:49;99764.10;;;22.92;55.97
58785;BME280;44557;51.862;19.378;2023-05-25T10:07:52;99766.02;;;22.99;56.30
58785;BME280;44557;51.862;19.378;2023-05-25T10:09:55;99767.06;;;23.06;55.05
58785;BME280;44557;51.862;19.378;2023-05-25T10:11:58;99765.96;;;22.91;56.14
58785;BME280;44557;51.862;19.378;2023-05-25T10:14:04;99768.20;;;23.18;56.50
58785;BME280;44557;51.862;19.378;2023-05-25T10:16:08;99765.08;;;23.48;55.20
58785;BME280;44557;51.862;19.378;2023-05-25T10:18:14;99766.73;;;23.32;55.57
58785;BME280;44557;51.862;19.378;2023-05-25T10:20:16;99763.19;;;23.55;55.31
58785;BME280;44557;51.862;19.378;2023-05-25T10:22:20;99765.94;;;23.19;55.50
58785;BME280;44557;51.862;19.378;2023-05-25T10:24:32;99765.19;;;23.56;54.90
58785;BME280;44557;51.862;19.378;2023-05-25T10:26:39;99765.05;;;23.71;54.94
58785;BME280;44557;51.862;19.378;2023-05-25T10:28:43;99772.61;;;23.25;54.48
58785;BME280;44557;51.862;19.378;2023-05-25T10:30:45;99774.02;;;23.08;54.16
58785;BME280;44557;51.862;19.378;2023-05-25T10:32:47;99768.46;;;23.03;55.12
58785;BME280;44557;51.862;19.378;2023-05-25T10:34:51;99770.25;;;22.72;55.37
58785;BME280;44557;51.862;19.378;2023-05-25T10:36:54;99770.95;;;22.60;56.07
58785;BME280;44557;51.862;19.378;2023-05-25T10:38:57;99771.71;;;22.48;56.94
58785;BME280;44557;51.862;19.378;2023-05-25T10:40:59;99773.78;;;22.57;56.94
58785;BME280;44557;51.862;19.378;2023-05-25T10:43:02;99776.29;;;22.64;56.32
58785;BME280;44557;51.862;19.378;2023-05-25T10:45:07;99777.20;;;22.24;56.90